Time;durP1;ratioP1;P1;durP2;ratioP2;P2;SDS_P1;SDS_P2;PMS_P1;PMS_P2;Temp;Humidity;BMP_temperature;BMP_pressure;BME280_temperature;BME280_humidity;BME280_pressure;Samples;Min_cycle;Max_cycle;Signal;HPM_P1;HPM_P2
2024/01/14 00:02:21;;;;;;;13.95;7.68;;;16.30;32.20;;;;;;5147562;27;46710;-72
2024/01/14 00:04:48;;;;;;;13.98;8.07;;;16.20;32.10;;;;;;5150477;27;45395;-71
2024/01/14 00:07:17;;;;;;;14.95;8.40;;;16.20;32.10;;;;;;5149396;27;45408;-71
2024/01/14 00:09:43;;;;;;;13.75;8.05;;;16.20;32.70;;;;;;5150626;27;45288;-70
2024/01/14 00:12:11;;;;;;;18.58;9.45;;;16.20;32.10;;;;;;5149501;27;45463;-71
2024/01/14 00:14:38;;;;;;;15.52;10.30;;;16.20;32.20;;;;;;5150254;27;45367;-72
2024/01/14 00:17:04;;;;;;;15.93;10.23;;;16.20;32.80;;;;;;5150295;27;45310;-72
2024/01/14 00:19:32;;;;;;;15.45;11.02;;;16.20;32.20;;;;;;5150638;27;44802;-72
2024/01/14 00:21:58;;;;;;;17.35;10.38;;;16.20;32.20;;;;;;5149802;27;45316;-72
2024/01/14 00:24:27;;;;;;;14.68;9.52;;;16.10;32.20;;;;;;5150233;27;45306;-71
2024/01/14 00:26:54;;;;;;;14.15;9.75;;;16.10;32.10;;;;;;5150267;27;45313;-71
2024/01/14 00:29:21;;;;;;;13.77;10.45;;;16.10;32.10;;;;;;5150227;27;45662;-71
2024/01/14 00:31:48;;;;;;;15.30;10.65;;;16.10;32.20;;;;;;5149879;27;46625;-71
2024/01/14 00:34:15;;;;;;;13.82;9.02;;;16.10;32.20;;;;;;5149925;27;45309;-72
2024/01/14 00:36:42;;;;;;;14.80;10.25;;;16.10;32.20;;;;;;5150132;27;45396;-71
2024/01/14 00:39:09;;;;;;;13.90;8.00;;;16.10;32.20;;;;;;5150129;27;45451;-71
2024/01/14 00:41:38;;;;;;;13.27;7.63;;;16.10;32.20;;;;;;5149520;27;47952;-71
2024/01/14 00:44:05;;;;;;;14.27;7.85;;;16.10;32.10;;;;;;5149878;27;45267;-71
2024/01/14 00:46:32;;;;;;;13.68;7.97;;;16.10;32.10;;;;;;5149995;27;45372;-73
2024/01/14 00:48:59;;;;;;;13.05;7.63;;;16.10;32.10;;;;;;5150193;27;45548;-71
2024/01/14 00:51:26;;;;;;;13.05;7.40;;;16.10;32.10;;;;;;5149707;27;45563;-71
2024/01/14 00:53:53;;;;;;;13.40;8.13;;;16.00;32.10;;;;;;5149859;27;46025;-72
2024/01/14 00:56:19;;;;;;;16.23;10.13;;;16.10;32.10;;;;;;5149382;27;45263;-71
2024/01/14 00:58:47;;;;;;;13.45;8.35;;;16.10;32.10;;;;;;5149754;27;45263;-71
2024/01/14 01:01:14;;;;;;;16.45;9.98;;;16.10;32.10;;;;;;5150094;27;46588;-71
2024/01/14 01:03:40;;;;;;;15.38;9.25;;;16.10;32.20;;;;;;5149341;27;45444;-71
2024/01/14 01:06:11;;;;;;;13.73;8.15;;;16.10;32.20;;;;;;5149382;27;45316;-71
2024/01/14 01:08:38;;;;;;;16.63;8.88;;;16.10;32.80;;;;;;5149834;27;45351;-71
2024/01/14 01:11:05;;;;;;;14.93;9.52;;;16.00;32.10;;;;;;5149396;27;46365;-71
2024/01/14 01:13:33;;;;;;;16.27;10.80;;;16.00;32.10;;;;;;5149564;27;45278;-71
2024/01/14 01:16:01;;;;;;;17.70;10.95;;;16.00;32.10;;;;;;5149605;27;45157;-71
2024/01/14 01:18:28;;;;;;;13.88;8.65;;;16.00;32.10;;;;;;5148985;27;45377;-71
2024/01/14 01:20:54;;;;;;;15.85;8.00;;;16.00;32.10;;;;;;5149066;27;45475;-71
2024/01/14 01:23:21;;;;;;;13.90;8.05;;;16.00;32.10;;;;;;5149082;27;45397;-71
2024/01/14 01:25:48;;;;;;;14.90;9.55;;;16.00;32.10;;;;;;5149210;27;45258;-71
2024/01/14 01:28:15;;;;;;;16.35;8.20;;;16.00;32.10;;;;;;5149556;27;45185;-71
2024/01/14 01:30:42;;;;;;;15.45;9.88;;;16.00;32.10;;;;;;5148929;27;46308;-70
2024/01/14 01:33:10;;;;;;;13.20;8.40;;;16.00;32.10;;;;;;5148998;27;45460;-71
2024/01/14 01:35:37;;;;;;;14.75;8.57;;;15.90;32.10;;;;;;5149112;27;45275;-70
2024/01/14 01:38:04;;;;;;;15.27;8.20;;;15.90;32.20;;;;;;5149042;27;45530;-70
2024/01/14 01:40:31;;;;;;;14.68;7.88;;;15.90;32.10;;;;;;5148202;27;47129;-71
2024/01/14 01:42:58;;;;;;;15.38;7.93;;;15.90;32.10;;;;;;5148700;27;45375;-71
2024/01/14 01:45:25;;;;;;;14.35;7.53;;;15.90;32.10;;;;;;5148777;27;45335;-71
2024/01/14 01:47:52;;;;;;;15.20;8.05;;;15.90;32.10;;;;;;5149118;27;45177;-72
2024/01/14 01:50:20;;;;;;;12.80;8.38;;;15.90;32.10;;;;;;5148793;27;46705;-71
2024/01/14 01:52:47;;;;;;;14.23;8.35;;;15.90;32.10;;;;;;5148818;27;45296;-71
2024/01/14 01:55:14;;;;;;;15.90;8.38;;;15.90;32.10;;;;;;5148926;27;45401;-71
2024/01/14 01:57:41;;;;;;;16.38;8.73;;;15.90;32.10;;;;;;5148872;27;45244;-71
2024/01/14 02:00:09;;;;;;;14.80;7.85;;;15.90;32.10;;;;;;5148566;27;46270;-71
2024/01/14 02:02:36;;;;;;;16.08;8.43;;;15.90;32.10;;;;;;5148785;27;45274;-71
2024/01/14 02:05:04;;;;;;;13.32;7.68;;;15.90;32.10;;;;;;5148792;27;45387;-71
2024/01/14 02:07:32;;;;;;;16.88;10.43;;;15.80;32.00;;;;;;5148817;27;45420;-71
2024/01/14 02:09:59;;;;;;;14.38;9.77;;;15.80;32.10;;;;;;5148402;27;46635;-71
2024/01/14 02:12:26;;;;;;;18.23;11.30;;;15.80;32.10;;;;;;5148234;27;45246;-71
2024/01/14 02:14:53;;;;;;;17.10;10.48;;;15.80;32.10;;;;;;5148440;27;45340;-71
2024/01/14 02:17:20;;;;;;;15.00;9.70;;;15.80;32.10;;;;;;5148568;27;45430;-71
2024/01/14 02:19:47;;;;;;;14.57;7.97;;;15.80;32.10;;;;;;5148749;27;47282;-71
2024/01/14 02:22:15;;;;;;;14.00;8.02;;;15.80;32.10;;;;;;5148708;27;45902;-70
2024/01/14 02:24:43;;;;;;;15.82;10.30;;;15.80;32.10;;;;;;5148277;27;45336;-71
2024/01/14 02:27:10;;;;;;;16.38;10.70;;;15.80;32.10;;;;;;5148989;27;45366;-71
2024/01/14 02:29:38;;;;;;;15.43;10.80;;;15.80;32.10;;;;;;5148614;27;46403;-71
2024/01/14 02:32:05;;;;;;;14.93;8.48;;;15.70;32.10;;;;;;5152346;27;45178;-71
2024/01/14 02:34:35;;;;;;;15.90;8.13;;;15.70;32.10;;;;;;5152647;27;45423;-71
2024/01/14 02:37:02;;;;;;;14.48;8.15;;;15.80;32.10;;;;;;5152788;27;45380;-71
2024/01/14 02:39:29;;;;;;;14.80;10.07;;;15.70;32.10;;;;;;5152135;27;45270;-70
2024/01/14 02:41:57;;;;;;;15.05;9.75;;;15.80;32.10;;;;;;5151852;27;46071;-72
2024/01/14 02:44:24;;;;;;;14.70;9.88;;;15.70;32.10;;;;;;5152472;27;45456;-70
2024/01/14 02:46:51;;;;;;;15.45;9.70;;;15.70;32.10;;;;;;5152665;27;45311;-72
2024/01/14 02:49:17;;;;;;;14.57;10.45;;;15.70;32.10;;;;;;5151907;27;46408;-71
2024/01/14 02:51:45;;;;;;;16.15;9.63;;;15.70;32.10;;;;;;5149258;27;45317;-71
2024/01/14 02:54:12;;;;;;;15.73;8.10;;;15.70;32.10;;;;;;5152245;27;45411;-71
2024/01/14 02:56:39;;;;;;;13.95;7.63;;;15.70;32.10;;;;;;5152661;27;45388;-71
2024/01/14 02:59:08;;;;;;;16.98;9.73;;;15.70;32.10;;;;;;5151814;27;45478;-72
2024/01/14 03:01:34;;;;;;;15.20;8.30;;;15.70;32.30;;;;;;5151955;27;45264;-71
2024/01/14 03:04:02;;;;;;;15.02;8.23;;;15.70;32.10;;;;;;5152132;27;45314;-71
2024/01/14 03:06:29;;;;;;;14.15;8.23;;;15.70;32.00;;;;;;5152220;27;45628;-71
2024/01/14 03:08:56;;;;;;;16.50;8.90;;;15.70;32.00;;;;;;5151147;27;46550;-71
2024/01/14 03:11:23;;;;;;;14.10;7.97;;;15.70;32.10;;;;;;5151704;27;45269;-71
2024/01/14 03:13:49;;;;;;;13.88;7.93;;;15.70;32.10;;;;;;5151958;27;45395;-71
2024/01/14 03:16:18;;;;;;;13.63;7.90;;;15.70;32.00;;;;;;5151778;27;45106;-71
2024/01/14 03:18:45;;;;;;;13.98;8.07;;;15.70;32.00;;;;;;5151467;27;47313;-71
2024/01/14 03:21:18;;;;;;;15.13;9.07;;;15.70;32.00;;;;;;5151800;27;45450;-71
2024/01/14 03:23:44;;;;;;;15.10;10.32;;;15.70;32.00;;;;;;5151892;27;45301;-72
2024/01/14 03:26:11;;;;;;;15.18;9.65;;;15.70;32.00;;;;;;5151964;27;45343;-71
2024/01/14 03:28:39;;;;;;;15.65;8.20;;;15.60;31.90;;;;;;5151538;27;45344;-71
2024/01/14 03:31:07;;;;;;;16.65;8.48;;;15.60;32.00;;;;;;5151385;27;45310;-72
2024/01/14 03:33:35;;;;;;;15.57;10.15;;;15.60;32.00;;;;;;5151767;27;45256;-72
2024/01/14 03:36:08;;;;;;;15.95;8.65;;;15.60;32.00;;;;;;5152081;27;45425;-71
2024/01/14 03:38:35;;;;;;;14.98;8.05;;;15.60;32.00;;;;;;5151395;27;46525;-71
2024/01/14 03:41:01;;;;;;;14.82;9.88;;;15.60;31.90;;;;;;5151013;27;45228;-71
2024/01/14 03:43:28;;;;;;;13.60;9.52;;;15.60;31.90;;;;;;5151464;27;45276;-71
2024/01/14 03:45:55;;;;;;;11.93;7.53;;;15.60;31.90;;;;;;5151350;27;45489;-71
2024/01/14 03:48:22;;;;;;;14.07;9.80;;;15.60;31.90;;;;;;5150747;27;45485;-71
2024/01/14 03:50:50;;;;;;;15.65;10.38;;;15.60;32.00;;;;;;5150611;27;45309;-72
2024/01/14 03:53:17;;;;;;;16.02;10.30;;;15.60;31.90;;;;;;5150685;27;45383;-71
2024/01/14 03:55:46;;;;;;;14.43;10.05;;;15.60;31.90;;;;;;5150596;27;45255;-71
2024/01/14 03:58:13;;;;;;;13.95;9.48;;;15.50;31.80;;;;;;5150373;27;45521;-71
2024/01/14 04:00:40;;;;;;;13.52;7.55;;;15.50;31.80;;;;;;5150546;27;45340;-71
2024/01/14 04:03:07;;;;;;;16.95;7.60;;;15.50;31.80;;;;;;5150703;27;45376;-72
2024/01/14 04:05:34;;;;;;;15.18;8.95;;;15.50;31.80;;;;;;5151090;27;45310;-70
2024/01/14 04:08:02;;;;;;;13.80;7.95;;;15.50;31.80;;;;;;5150531;27;46634;-72
2024/01/14 04:10:29;;;;;;;14.73;9.77;;;15.50;31.80;;;;;;5151375;27;45404;-71
2024/01/14 04:12:56;;;;;;;14.18;9.68;;;15.60;31.80;;;;;;5151317;27;45293;-69
2024/01/14 04:15:23;;;;;;;13.40;8.85;;;15.60;31.80;;;;;;5151309;27;45214;-71
2024/01/14 04:17:49;;;;;;;16.05;9.32;;;15.60;31.70;;;;;;5151326;27;45312;-71
2024/01/14 04:20:16;;;;;;;13.43;9.55;;;15.70;31.60;;;;;;5151177;27;45301;-71
2024/01/14 04:22:43;;;;;;;15.30;8.90;;;15.70;31.50;;;;;;5151059;27;45311;-71
2024/01/14 04:25:11;;;;;;;14.82;9.10;;;15.80;31.40;;;;;;5151160;27;45330;-71
2024/01/14 04:27:38;;;;;;;14.98;9.65;;;15.90;31.30;;;;;;5150670;27;46392;-71
2024/01/14 04:30:07;;;;;;;13.95;7.35;;;16.00;31.20;;;;;;5150832;27;45674;-71
2024/01/14 04:32:34;;;;;;;14.27;6.85;;;16.10;31.00;;;;;;5151235;27;45296;-71
2024/01/14 04:35:01;;;;;;;12.80;9.00;;;16.20;30.80;;;;;;5150762;27;45567;-70
2024/01/14 04:37:28;;;;;;;15.55;10.07;;;16.30;30.70;;;;;;5150259;27;45324;-70
2024/01/14 04:39:55;;;;;;;15.80;10.00;;;16.40;30.50;;;;;;5149507;27;45263;-71
2024/01/14 04:42:23;;;;;;;14.73;9.07;;;16.50;30.30;;;;;;5150121;27;45340;-71
2024/01/14 04:44:50;;;;;;;13.05;9.27;;;16.60;30.30;;;;;;5150598;27;45446;-71
2024/01/14 04:47:17;;;;;;;16.33;10.07;;;16.70;30.20;;;;;;5150441;27;48001;-71
2024/01/14 04:49:44;;;;;;;14.07;7.90;;;16.70;30.00;;;;;;5150292;27;45371;-71
2024/01/14 04:52:11;;;;;;;11.63;6.60;;;16.80;30.00;;;;;;5150241;27;45246;-71
2024/01/14 04:54:38;;;;;;;12.27;7.25;;;16.90;30.00;;;;;;5149821;27;45399;-71
2024/01/14 04:57:05;;;;;;;14.18;7.40;;;16.90;29.90;;;;;;5150086;27;45506;-72
2024/01/14 04:59:33;;;;;;;13.43;7.95;;;17.00;29.90;;;;;;5150046;27;45484;-70
2024/01/14 05:02:00;;;;;;;13.07;7.22;;;17.00;29.70;;;;;;5150028;27;45304;-71
2024/01/14 05:04:28;;;;;;;15.48;7.57;;;17.10;29.70;;;;;;5147265;27;45300;-71
2024/01/14 05:06:54;;;;;;;12.82;7.20;;;17.10;29.70;;;;;;5150223;27;45771;-71
2024/01/14 05:09:21;;;;;;;14.45;7.55;;;17.20;29.60;;;;;;5150304;27;45387;-71
2024/01/14 05:11:48;;;;;;;13.13;6.90;;;17.30;29.60;;;;;;5150336;27;45390;-71
2024/01/14 05:14:15;;;;;;;14.80;8.13;;;17.30;29.50;;;;;;5150152;27;45440;-71
2024/01/14 05:16:43;;;;;;;14.90;7.15;;;17.30;29.50;;;;;;5149792;27;46356;-71
2024/01/14 05:19:10;;;;;;;13.38;7.82;;;17.30;29.50;;;;;;5149587;27;45353;-70
2024/01/14 05:21:37;;;;;;;12.38;7.03;;;17.40;29.50;;;;;;5149134;27;45355;-71
2024/01/14 05:24:04;;;;;;;13.15;6.80;;;17.40;29.40;;;;;;5149967;27;45268;-71
2024/01/14 05:26:31;;;;;;;12.70;6.72;;;17.40;29.40;;;;;;5149573;27;46368;-71
2024/01/14 05:28:59;;;;;;;12.27;7.53;;;17.50;29.40;;;;;;5149692;27;45204;-71
2024/01/14 05:31:27;;;;;;;14.68;7.28;;;17.50;29.30;;;;;;5149515;27;45295;-72
2024/01/14 05:33:55;;;;;;;12.77;7.00;;;17.60;29.30;;;;;;5149864;27;45323;-71
2024/01/14 05:36:22;;;;;;;14.07;8.00;;;17.60;29.20;;;;;;5146840;27;45329;-71
2024/01/14 05:38:49;;;;;;;13.57;7.18;;;17.60;29.20;;;;;;5149026;27;45390;-71
2024/01/14 05:41:16;;;;;;;14.52;7.50;;;17.60;29.20;;;;;;5149596;27;44715;-71
2024/01/14 05:43:42;;;;;;;13.55;7.15;;;17.70;29.20;;;;;;5149870;27;45398;-71
2024/01/14 05:46:09;;;;;;;12.88;7.57;;;17.70;29.20;;;;;;5149511;27;46282;-71
2024/01/14 05:48:36;;;;;;;11.75;6.88;;;17.70;29.10;;;;;;5149683;27;45332;-71
2024/01/14 05:51:05;;;;;;;11.25;7.00;;;17.70;29.10;;;;;;5149277;27;45259;-72
2024/01/14 05:53:31;;;;;;;12.90;7.13;;;17.70;29.10;;;;;;5149773;27;45186;-72
2024/01/14 05:55:58;;;;;;;13.50;6.90;;;17.80;29.00;;;;;;5149340;27;45372;-72
2024/01/14 05:58:25;;;;;;;14.25;7.60;;;17.80;29.00;;;;;;5149088;27;45345;-72
2024/01/14 06:00:52;;;;;;;13.70;7.28;;;17.80;29.00;;;;;;5149481;27;45364;-72
2024/01/14 06:03:19;;;;;;;13.95;7.22;;;17.90;29.00;;;;;;5149291;27;45510;-71
2024/01/14 06:05:46;;;;;;;13.13;6.45;;;17.90;28.90;;;;;;5148567;27;46304;-72
2024/01/14 06:08:14;;;;;;;12.40;6.82;;;17.90;28.90;;;;;;5149024;27;45668;-72
2024/01/14 06:10:41;;;;;;;14.88;7.50;;;18.00;28.90;;;;;;5149196;27;45274;-72
2024/01/14 06:13:08;;;;;;;11.77;7.53;;;18.00;28.90;;;;;;5149608;27;45406;-73
2024/01/14 06:15:35;;;;;;;12.07;7.07;;;18.00;28.80;;;;;;5148814;27;46378;-71
2024/01/14 06:18:02;;;;;;;12.52;6.60;;;18.00;28.80;;;;;;5148770;27;45332;-71
2024/01/14 06:20:29;;;;;;;15.48;7.57;;;18.00;28.80;;;;;;5148656;27;45369;-73
2024/01/14 06:22:55;;;;;;;12.43;6.53;;;18.00;28.70;;;;;;5149152;27;45170;-71
2024/01/14 06:25:23;;;;;;;12.15;7.20;;;18.00;28.70;;;;;;5148689;27;45672;-71
2024/01/14 06:27:50;;;;;;;12.73;6.72;;;18.00;28.70;;;;;;5148718;27;45368;-71
2024/01/14 06:30:18;;;;;;;11.65;7.28;;;18.10;28.70;;;;;;5148962;27;45411;-71
2024/01/14 06:32:44;;;;;;;12.95;7.32;;;18.10;28.70;;;;;;5148863;27;45338;-71
2024/01/14 06:35:11;;;;;;;11.75;7.15;;;18.10;28.70;;;;;;5148533;27;46406;-71
2024/01/14 06:37:38;;;;;;;14.27;7.47;;;18.10;28.60;;;;;;5148602;27;45161;-71
2024/01/14 06:40:06;;;;;;;14.95;7.55;;;18.20;28.60;;;;;;5148644;27;45534;-72
2024/01/14 06:42:35;;;;;;;12.75;6.88;;;18.20;28.50;;;;;;5148580;27;45414;-71
2024/01/14 06:45:01;;;;;;;11.95;7.15;;;18.20;28.50;;;;;;5145714;27;45490;-71
2024/01/14 06:47:28;;;;;;;13.77;6.65;;;18.20;28.50;;;;;;5147676;27;45269;-71
2024/01/14 06:49:55;;;;;;;12.98;7.43;;;18.30;28.50;;;;;;5148626;27;45276;-72
2024/01/14 06:52:23;;;;;;;11.82;6.78;;;18.20;28.50;;;;;;5148842;27;45558;-71
2024/01/14 06:54:50;;;;;;;12.35;6.70;;;18.30;28.50;;;;;;5148357;27;45217;-73
2024/01/14 06:57:17;;;;;;;13.27;7.03;;;18.30;28.50;;;;;;5148602;27;45266;-71
2024/01/14 06:59:45;;;;;;;12.77;6.95;;;18.30;28.50;;;;;;5148662;27;45379;-70
2024/01/14 07:02:12;;;;;;;13.25;6.55;;;18.30;28.50;;;;;;5149117;27;45411;-71
2024/01/14 07:04:40;;;;;;;11.10;6.93;;;18.30;28.50;;;;;;5148447;27;46382;-71
2024/01/14 07:07:07;;;;;;;11.55;6.82;;;18.40;28.50;;;;;;5148125;27;45260;-72
2024/01/14 07:09:34;;;;;;;16.05;7.05;;;18.40;28.40;;;;;;5148268;27;45293;-71
2024/01/14 07:12:01;;;;;;;15.27;7.47;;;18.40;28.40;;;;;;5148374;27;45258;-71
2024/01/14 07:14:28;;;;;;;14.13;7.88;;;18.40;28.40;;;;;;5148156;27;46657;-72
2024/01/14 07:16:56;;;;;;;15.40;7.53;;;18.40;28.40;;;;;;5150126;27;45294;-71
2024/01/14 07:19:23;;;;;;;12.55;6.70;;;18.40;28.30;;;;;;5151828;27;45279;-71
2024/01/14 07:21:51;;;;;;;13.23;7.00;;;18.40;28.30;;;;;;5151988;27;45417;-72
2024/01/14 07:24:17;;;;;;;14.02;7.25;;;18.40;28.40;;;;;;5151455;27;46500;-71
2024/01/14 07:26:45;;;;;;;13.23;7.18;;;18.40;28.30;;;;;;5152043;27;45317;-71
2024/01/14 07:29:11;;;;;;;10.70;6.38;;;18.50;28.30;;;;;;5151456;27;45389;-69
2024/01/14 07:31:39;;;;;;;12.65;6.97;;;18.50;28.30;;;;;;5151441;27;45501;-71
2024/01/14 07:34:07;;;;;;;13.63;7.15;;;18.50;28.20;;;;;;5151468;27;46439;-71
2024/01/14 07:36:34;;;;;;;13.55;7.05;;;18.50;28.20;;;;;;5151568;27;45291;-71
2024/01/14 07:39:01;;;;;;;14.32;7.35;;;18.50;28.20;;;;;;5151551;27;45308;-71
2024/01/14 07:41:28;;;;;;;13.27;7.13;;;18.50;28.20;;;;;;5151565;27;45341;-71
2024/01/14 07:43:55;;;;;;;12.15;6.82;;;18.50;28.20;;;;;;5151244;27;46581;-71
2024/01/14 07:46:22;;;;;;;15.50;7.72;;;18.50;28.20;;;;;;5151440;27;45474;-71
2024/01/14 07:48:49;;;;;;;14.82;7.45;;;18.50;28.20;;;;;;5151136;27;45368;-71
2024/01/14 07:51:17;;;;;;;12.68;7.22;;;18.60;28.20;;;;;;5151603;27;45297;-72
2024/01/14 07:53:45;;;;;;;13.73;7.43;;;18.60;28.20;;;;;;5151009;27;45357;-72
2024/01/14 07:56:11;;;;;;;11.93;6.90;;;18.60;28.20;;;;;;5151153;27;45319;-72
2024/01/14 07:58:38;;;;;;;14.32;7.47;;;18.60;28.10;;;;;;5151537;27;45256;-72
2024/01/14 08:01:06;;;;;;;15.32;7.68;;;18.60;28.20;;;;;;5151361;27;45406;-72
2024/01/14 08:03:33;;;;;;;11.55;6.80;;;18.60;28.10;;;;;;5151370;27;47302;-71
2024/01/14 08:06:02;;;;;;;13.13;7.28;;;18.60;28.10;;;;;;5151595;27;45434;-72
2024/01/14 08:08:31;;;;;;;14.10;7.03;;;18.60;28.10;;;;;;5151308;27;45273;-72
2024/01/14 08:10:58;;;;;;;14.90;10.23;;;18.60;28.20;;;;;;5151196;27;45293;-73
2024/01/14 08:13:25;;;;;;;11.88;6.97;;;18.60;28.10;;;;;;5150490;27;47285;-72
2024/01/14 08:15:52;;;;;;;15.13;7.25;;;18.60;28.10;;;;;;5149936;27;45367;-72
2024/01/14 08:18:19;;;;;;;16.67;7.75;;;18.60;28.10;;;;;;5150206;27;45415;-71
2024/01/14 08:20:47;;;;;;;11.73;7.00;;;18.60;28.00;;;;;;5150831;27;45473;-72
2024/01/14 08:23:14;;;;;;;15.82;7.63;;;18.70;28.10;;;;;;5150753;27;45445;-72
2024/01/14 08:25:44;;;;;;;12.30;7.07;;;18.70;28.00;;;;;;5150714;27;45360;-71
2024/01/14 08:28:11;;;;;;;15.43;7.00;;;18.70;28.00;;;;;;5149475;27;45321;-72
2024/01/14 08:30:38;;;;;;;14.68;7.88;;;18.70;28.00;;;;;;5150720;27;45665;-71
2024/01/14 08:33:05;;;;;;;12.38;7.20;;;18.70;28.00;;;;;;5150495;27;46951;-72
2024/01/14 08:35:32;;;;;;;13.60;7.15;;;18.70;28.00;;;;;;5150534;27;45297;-73
2024/01/14 08:37:59;;;;;;;13.88;7.38;;;18.70;28.00;;;;;;5150487;27;45460;-72
2024/01/14 08:40:24;;;;;;;14.07;7.28;;;18.70;27.90;;;;;;5150402;27;44801;-72
2024/01/14 08:42:53;;;;;;;12.07;7.22;;;18.70;27.90;;;;;;5150285;27;46351;-72
2024/01/14 08:45:19;;;;;;;13.65;6.93;;;18.80;27.90;;;;;;5150383;27;45300;-72
2024/01/14 08:47:46;;;;;;;13.30;6.70;;;18.80;27.90;;;;;;5150293;27;45377;-73
2024/01/14 08:50:13;;;;;;;12.63;7.53;;;18.80;27.90;;;;;;5147689;27;45458;-71
2024/01/14 08:52:41;;;;;;;12.35;7.57;;;18.80;27.90;;;;;;5150140;27;45341;-71
2024/01/14 08:55:09;;;;;;;15.48;7.85;;;18.80;27.90;;;;;;5149487;27;45242;-72
2024/01/14 08:57:36;;;;;;;15.27;7.75;;;18.80;27.90;;;;;;5150305;27;45381;-72
2024/01/14 09:00:05;;;;;;;15.27;8.00;;;18.80;27.90;;;;;;5150298;27;45278;-72
2024/01/14 09:02:32;;;;;;;16.35;7.95;;;18.80;27.90;;;;;;5149953;27;46614;-71
2024/01/14 09:04:59;;;;;;;14.45;7.18;;;18.80;27.90;;;;;;5150342;27;45266;-72
2024/01/14 09:07:26;;;;;;;14.52;7.13;;;18.80;27.90;;;;;;5150339;27;45380;-71
2024/01/14 09:09:53;;;;;;;16.33;7.53;;;18.80;27.90;;;;;;5150542;27;45285;-72
2024/01/14 09:12:20;;;;;;;15.15;7.22;;;18.90;27.90;;;;;;5149806;27;46640;-71
2024/01/14 09:14:47;;;;;;;12.75;6.72;;;18.80;27.80;;;;;;5149786;27;45201;-71
2024/01/14 09:17:15;;;;;;;13.10;7.13;;;18.80;27.80;;;;;;5149836;27;45370;-71
2024/01/14 09:19:42;;;;;;;13.27;6.50;;;18.90;27.90;;;;;;5150134;27;45421;-72
2024/01/14 09:22:09;;;;;;;14.30;7.65;;;18.90;27.90;;;;;;5149869;27;46390;-71
2024/01/14 09:24:36;;;;;;;13.57;6.95;;;18.90;27.90;;;;;;5149773;27;45273;-71
2024/01/14 09:27:03;;;;;;;11.00;6.18;;;18.90;27.90;;;;;;5149901;27;45308;-71
2024/01/14 09:29:30;;;;;;;13.60;7.20;;;18.90;27.90;;;;;;5149752;27;45289;-72
2024/01/14 09:31:57;;;;;;;13.88;6.90;;;18.90;27.90;;;;;;5149557;27;46379;-72
2024/01/14 09:34:25;;;;;;;13.63;7.47;;;18.90;27.90;;;;;;5149691;27;45293;-72
2024/01/14 09:36:52;;;;;;;11.70;6.82;;;18.90;27.80;;;;;;5149786;27;45341;-71
2024/01/14 09:39:19;;;;;;;14.75;7.10;;;18.90;27.80;;;;;;5148681;27;45321;-72
2024/01/14 09:41:48;;;;;;;13.57;7.03;;;18.90;27.80;;;;;;5148997;27;46390;-72
2024/01/14 09:44:15;;;;;;;13.82;7.10;;;18.90;27.80;;;;;;5149575;27;45221;-72
2024/01/14 09:46:42;;;;;;;12.90;6.90;;;18.90;28.30;;;;;;5149684;27;45379;-72
2024/01/14 09:49:10;;;;;;;12.15;6.93;;;19.00;27.80;;;;;;5149714;27;45420;-71
2024/01/14 09:51:38;;;;;;;11.90;7.05;;;19.00;27.80;;;;;;5149165;27;45365;-71
2024/01/14 09:54:05;;;;;;;11.88;6.57;;;18.90;27.80;;;;;;5149535;27;45155;-72
2024/01/14 09:56:34;;;;;;;14.18;6.47;;;19.00;27.80;;;;;;5149242;27;45306;-72
2024/01/14 09:59:01;;;;;;;13.18;7.40;;;18.90;27.80;;;;;;5149392;27;45345;-72
2024/01/14 10:01:31;;;;;;;15.30;6.90;;;18.90;27.70;;;;;;5148592;27;45481;-72
2024/01/14 10:03:58;;;;;;;15.05;7.13;;;18.90;27.80;;;;;;5149075;27;45331;-73
2024/01/14 10:06:25;;;;;;;11.48;6.95;;;19.00;27.80;;;;;;5149156;27;45427;-72
2024/01/14 10:08:53;;;;;;;14.25;7.20;;;19.00;27.80;;;;;;5149454;27;45492;-72
2024/01/14 10:11:20;;;;;;;10.85;6.22;;;19.00;27.80;;;;;;5149074;27;46245;-72
2024/01/14 10:13:47;;;;;;;12.00;6.63;;;19.00;27.80;;;;;;5149130;27;45271;-71
2024/01/14 10:16:14;;;;;;;12.25;6.63;;;19.00;27.80;;;;;;5149076;27;45421;-71
2024/01/14 10:18:41;;;;;;;13.00;6.97;;;19.00;27.80;;;;;;5149091;27;45505;-71
2024/01/14 10:21:07;;;;;;;14.13;7.85;;;19.10;27.80;;;;;;5148853;27;45411;-71
2024/01/14 10:23:37;;;;;;;13.25;7.85;;;19.10;27.80;;;;;;5148018;27;45260;-71
2024/01/14 10:26:06;;;;;;;12.40;6.97;;;19.00;27.80;;;;;;5148738;27;45321;-71
2024/01/14 10:28:33;;;;;;;13.27;6.93;;;19.10;27.90;;;;;;5148765;27;45414;-71
2024/01/14 10:31:00;;;;;;;12.63;6.82;;;19.00;27.80;;;;;;5148385;27;46807;-71
2024/01/14 10:33:27;;;;;;;13.13;7.40;;;19.10;27.80;;;;;;5148481;27;45257;-72
2024/01/14 10:35:54;;;;;;;11.18;6.90;;;19.00;27.80;;;;;;5148716;27;45221;-71
2024/01/14 10:38:22;;;;;;;12.15;6.90;;;19.10;27.80;;;;;;5148951;27;45450;-72
2024/01/14 10:40:49;;;;;;;13.32;7.60;;;19.10;27.80;;;;;;5148031;27;46654;-72
2024/01/14 10:43:18;;;;;;;14.98;7.80;;;19.20;27.80;;;;;;5148707;27;45242;-72
2024/01/14 10:45:45;;;;;;;11.55;6.72;;;19.10;27.80;;;;;;5148731;27;45206;-71
2024/01/14 10:48:12;;;;;;;13.75;7.00;;;19.10;27.80;;;;;;5148322;27;45483;-70
2024/01/14 10:50:39;;;;;;;14.80;7.47;;;19.10;27.80;;;;;;5147847;27;46832;-70
2024/01/14 10:53:08;;;;;;;15.77;7.88;;;19.10;27.80;;;;;;5150308;27;45566;-72
2024/01/14 10:55:40;;;;;;;15.88;7.60;;;19.10;27.70;;;;;;5152150;27;45279;-72
2024/01/14 10:58:07;;;;;;;13.05;6.75;;;19.00;27.80;;;;;;5152782;27;45594;-72
2024/01/14 11:00:35;;;;;;;14.95;7.05;;;19.00;28.00;;;;;;5151349;27;45298;-71
2024/01/14 11:03:03;;;;;;;11.65;6.53;;;18.90;28.10;;;;;;5151886;27;45469;-71
2024/01/14 11:05:35;;;;;;;13.25;6.72;;;18.80;28.20;;;;;;5148085;27;45218;-72
2024/01/14 11:08:03;;;;;;;10.88;6.47;;;18.80;28.30;;;;;;5152296;27;45405;-72
2024/01/14 11:10:30;;;;;;;15.95;6.88;;;18.80;28.40;;;;;;5150595;27;45455;-72
2024/01/14 11:13:01;;;;;;;12.35;6.78;;;18.70;28.50;;;;;;5148802;27;45295;-71
2024/01/14 11:15:29;;;;;;;16.10;7.00;;;18.70;28.50;;;;;;5151718;27;45378;-72
2024/01/14 11:17:59;;;;;;;14.95;7.45;;;18.60;28.50;;;;;;5150860;27;45439;-72
2024/01/14 11:20:28;;;;;;;10.93;6.35;;;18.60;28.70;;;;;;5151620;27;46368;-72
2024/01/14 11:22:56;;;;;;;10.80;6.40;;;18.50;28.70;;;;;;5151683;27;45408;-72
2024/01/14 11:25:24;;;;;;;12.18;6.68;;;18.50;28.80;;;;;;5151616;27;45252;-72
2024/01/14 11:27:53;;;;;;;10.93;5.97;;;18.60;28.80;;;;;;5150511;27;45679;-72
2024/01/14 11:30:20;;;;;;;10.90;6.43;;;18.70;28.70;;;;;;5148467;27;45554;-72
2024/01/14 11:32:47;;;;;;;11.88;6.45;;;18.80;28.60;;;;;;5151621;27;45297;-72
2024/01/14 11:35:33;;;;;;;14.27;6.65;;;18.90;28.50;;;;;;5151703;27;45296;-72
2024/01/14 11:38:00;;;;;;;11.60;6.57;;;19.00;28.40;;;;;;5147645;27;45402;-72
2024/01/14 11:40:26;;;;;;;10.02;6.25;;;19.00;28.40;;;;;;5154753;27;46231;-72
2024/01/14 11:42:57;;;;;;;10.98;5.90;;;19.10;28.30;;;;;;5153027;27;45450;-72
2024/01/14 11:45:40;;;;;;;10.52;5.90;;;19.20;28.20;;;;;;5166038;27;45418;-72
2024/01/14 11:48:08;;;;;;;9.40;5.90;;;19.30;28.10;;;;;;5152762;27;45190;-73
2024/01/14 11:50:37;;;;;;;9.25;5.93;;;19.30;28.00;;;;;;5151467;27;45561;-73
2024/01/14 11:53:07;;;;;;;11.90;6.20;;;19.40;28.00;;;;;;5148495;27;45397;-72
2024/01/14 11:55:34;;;;;;;9.48;5.68;;;19.40;27.90;;;;;;5151425;27;45421;-73
2024/01/14 11:58:14;;;;;;;10.60;5.90;;;19.50;27.90;;;;;;5156333;27;45254;-73
2024/01/14 12:00:41;;;;;;;11.52;5.88;;;19.50;27.90;;;;;;5153171;27;45339;-70
2024/01/14 12:03:09;;;;;;;13.18;6.63;;;19.50;27.90;;;;;;5150850;27;45261;-70
2024/01/14 12:05:38;;;;;;;15.52;5.97;;;19.70;27.90;;;;;;5150210;27;45322;-70
2024/01/14 12:08:05;;;;;;;11.38;6.28;;;19.70;27.90;;;;;;5151602;27;45478;-70
2024/01/14 12:10:32;;;;;;;12.15;6.72;;;19.80;27.90;;;;;;5152922;27;46382;-71
2024/01/14 12:13:01;;;;;;;9.68;5.88;;;19.70;28.00;;;;;;5155593;27;46226;-70
2024/01/14 12:15:28;;;;;;;12.40;6.80;;;19.60;28.10;;;;;;5152715;27;45505;-71
2024/01/14 12:17:55;;;;;;;9.48;5.35;;;19.70;28.30;;;;;;5155225;27;45370;-71
2024/01/14 12:20:22;;;;;;;10.70;6.05;;;19.70;28.20;;;;;;5155066;27;46693;-71
2024/01/14 12:22:57;;;;;;;26.02;6.93;;;19.70;28.20;;;;;;5152961;27;45281;-70
2024/01/14 12:25:24;;;;;;;15.80;6.03;;;19.60;28.00;;;;;;5152463;27;45485;-70
2024/01/14 12:27:51;;;;;;;14.52;7.60;;;19.60;28.50;;;;;;5159522;27;45575;-70
2024/01/14 12:30:30;;;;;;;15.00;7.05;;;19.60;28.00;;;;;;5151989;27;45417;-70
2024/01/14 12:32:57;;;;;;;14.85;7.47;;;19.60;28.00;;;;;;5148674;27;45387;-70
2024/01/14 12:35:34;;;;;;;21.08;7.20;;;19.50;28.20;;;;;;5149498;27;45370;-71
2024/01/14 12:38:03;;;;;;;13.00;6.75;;;19.60;28.40;;;;;;5159555;27;45532;-71